createdAt,value
2019-05-23T00:00:50.584Z,7.90
2019-05-23T00:03:49.218Z,8.00
2019-05-23T00:06:39.450Z,7.90
2019-05-23T00:09:27.627Z,7.90
2019-05-23T00:12:04.387Z,7.90
2019-05-23T00:14:40.056Z,7.80
2019-05-23T00:17:12.646Z,7.90
2019-05-23T00:19:43.152Z,7.90
2019-05-23T00:22:13.601Z,7.80
2019-05-23T00:24:43.523Z,7.80
2019-05-23T00:27:14.478Z,7.70
2019-05-23T00:29:44.648Z,7.70
2019-05-23T00:32:19.301Z,7.70
2019-05-23T00:34:51.345Z,7.70
2019-05-23T00:37:23.865Z,7.70
2019-05-23T00:39:54.134Z,7.70
2019-05-23T00:42:23.504Z,7.60
2019-05-23T00:44:53.869Z,7.50
2019-05-23T00:47:23.660Z,7.50
2019-05-23T00:49:53.301Z,7.50
2019-05-23T00:52:23.044Z,7.50
2019-05-23T00:54:52.690Z,7.50
2019-05-23T00:57:22.268Z,7.50
2019-05-23T00:59:52.782Z,7.40
2019-05-23T01:02:23.169Z,7.40
2019-05-23T01:04:52.469Z,7.40
2019-05-23T01:07:23.616Z,7.40
2019-05-23T01:09:54.365Z,7.40
2019-05-23T01:12:23.722Z,7.30
2019-05-23T01:14:54.019Z,7.20
2019-05-23T01:17:25.880Z,7.20
2019-05-23T01:19:56.918Z,7.10
2019-05-23T01:22:26.300Z,7.00
2019-05-23T01:24:56.143Z,7.00
2019-05-23T01:27:25.714Z,7.00
2019-05-23T01:29:56.073Z,6.90
2019-05-23T01:32:27.185Z,6.90
2019-05-23T01:34:56.789Z,6.90
2019-05-23T01:37:26.696Z,6.90
2019-05-23T01:39:56.085Z,6.90
2019-05-23T01:42:26.724Z,6.90
2019-05-23T01:44:58.482Z,6.80
2019-05-23T01:47:28.263Z,6.80
2019-05-23T01:49:58.198Z,6.80
2019-05-23T01:52:27.526Z,6.80
2019-05-23T01:54:56.997Z,6.80
2019-05-23T01:57:27.674Z,6.70
2019-05-23T02:00:08.783Z,6.70
2019-05-23T02:02:29.276Z,6.70
2019-05-23T02:04:59.217Z,6.60
2019-05-23T02:07:30.536Z,6.60
2019-05-23T02:10:00.167Z,6.70
2019-05-23T02:12:29.490Z,6.80
2019-05-23T02:14:59.567Z,6.80
2019-05-23T02:17:30.342Z,6.70
2019-05-23T02:19:59.653Z,6.70
2019-05-23T02:22:29.220Z,6.70
2019-05-23T02:24:59.590Z,6.70
2019-05-23T02:27:29.592Z,6.70
2019-05-23T02:30:00.421Z,6.70
2019-05-23T02:32:31.109Z,6.70
2019-05-23T02:35:00.562Z,6.70
2019-05-23T02:37:32.722Z,6.60
2019-05-23T02:40:10.319Z,6.60
2019-05-23T02:42:58.491Z,6.60
2019-05-23T02:45:31.460Z,6.50
2019-05-23T02:48:01.257Z,6.50
2019-05-23T02:50:50.361Z,6.50
2019-05-23T02:53:23.632Z,6.50
2019-05-23T02:55:56.259Z,6.50
2019-05-23T02:58:31.462Z,6.50
2019-05-23T03:01:10.359Z,6.50
2019-05-23T03:03:42.454Z,6.50
2019-05-23T03:06:14.062Z,6.40
2019-05-23T03:08:46.226Z,6.50
2019-05-23T03:11:28.797Z,6.50
2019-05-23T03:13:59.534Z,6.40
2019-05-23T03:16:34.009Z,6.50
2019-05-23T03:19:21.342Z,6.50
2019-05-23T03:21:53.391Z,6.50
2019-05-23T03:24:24.940Z,6.60
2019-05-23T03:27:03.642Z,6.60
2019-05-23T03:29:34.431Z,6.60
2019-05-23T03:32:06.990Z,6.70
2019-05-23T03:34:38.015Z,6.70
2019-05-23T03:37:07.955Z,6.80
2019-05-23T03:39:37.542Z,6.90
2019-05-23T03:42:08.401Z,6.90
2019-05-23T03:44:38.953Z,6.90
2019-05-23T03:47:09.927Z,6.90
2019-05-23T03:49:39.878Z,7.00
2019-05-23T03:52:11.198Z,7.00
2019-05-23T03:54:42.935Z,7.00
2019-05-23T03:57:13.102Z,7.00
2019-05-23T03:59:42.424Z,7.00
2019-05-23T04:02:13.410Z,7.10
2019-05-23T04:04:44.182Z,7.20
2019-05-23T04:07:15.135Z,7.20
2019-05-23T04:09:45.043Z,7.20
2019-05-23T04:12:14.727Z,7.20
2019-05-23T04:14:45.747Z,7.20
2019-05-23T04:17:15.066Z,7.30
2019-05-23T04:19:44.450Z,7.30
2019-05-23T04:22:13.903Z,7.40
2019-05-23T04:24:43.572Z,7.40
2019-05-23T04:27:14.931Z,7.40
2019-05-23T04:29:44.472Z,7.40
2019-05-23T04:32:13.774Z,7.40
2019-05-23T04:34:43.249Z,7.40
2019-05-23T04:37:12.553Z,7.40
2019-05-23T04:39:41.858Z,7.40
2019-05-23T04:42:11.440Z,7.50
2019-05-23T04:44:44.400Z,7.50
2019-05-23T04:47:12.606Z,7.60
2019-05-23T04:49:41.914Z,7.60
2019-05-23T04:52:11.353Z,7.60
2019-05-23T04:54:41.525Z,7.70
2019-05-23T04:57:12.476Z,7.70
2019-05-23T04:59:42.386Z,7.70
2019-05-23T05:02:25.512Z,7.80
2019-05-23T05:04:44.762Z,7.90
2019-05-23T05:07:14.635Z,7.90
2019-05-23T05:09:44.077Z,8.00
2019-05-23T05:12:14.625Z,8.00
2019-05-23T05:14:44.000Z,8.10
2019-05-23T05:17:14.309Z,8.20
2019-05-23T05:19:43.610Z,8.30
2019-05-23T05:22:13.384Z,8.40
2019-05-23T05:24:42.764Z,8.50
2019-05-23T05:27:12.062Z,8.60
2019-05-23T05:29:41.373Z,8.80
2019-05-23T05:32:11.127Z,8.90
2019-05-23T05:34:40.429Z,9.20
2019-05-23T05:37:09.737Z,9.60
2019-05-23T05:39:39.423Z,9.80
2019-05-23T05:42:09.304Z,10.00
2019-05-23T05:44:39.862Z,10.20
2019-05-23T05:47:10.234Z,10.30
2019-05-23T05:49:42.197Z,10.40
2019-05-23T05:52:11.882Z,10.60
2019-05-23T05:54:41.263Z,10.80
2019-05-23T05:57:11.604Z,10.90
2019-05-23T05:59:42.290Z,10.90
2019-05-23T06:02:13.225Z,11.10
2019-05-23T06:04:43.095Z,11.40
2019-05-23T06:07:32.744Z,11.60
2019-05-23T06:10:03.988Z,11.90
2019-05-23T06:12:35.421Z,12.10
2019-05-23T06:15:09.335Z,12.30
2019-05-23T06:17:38.648Z,12.50
2019-05-23T06:20:08.836Z,12.50
2019-05-23T06:22:38.405Z,12.40
2019-05-23T06:25:08.825Z,12.50
2019-05-23T06:27:40.344Z,12.60
2019-05-23T06:30:13.457Z,12.70
2019-05-23T06:32:42.795Z,12.90
2019-05-23T06:35:14.412Z,13.10
2019-05-23T06:37:43.779Z,13.20
2019-05-23T06:40:13.869Z,13.00
2019-05-23T06:42:43.276Z,13.10
2019-05-23T06:45:12.825Z,13.20
2019-05-23T06:47:42.131Z,13.50
2019-05-23T06:50:16.084Z,13.80
2019-05-23T06:52:45.517Z,14.10
2019-05-23T06:55:14.897Z,14.50
2019-05-23T06:57:44.268Z,14.60
2019-05-23T07:00:17.212Z,14.90
2019-05-23T07:02:48.333Z,15.00
2019-05-23T07:05:21.639Z,14.80
2019-05-23T07:07:50.951Z,15.00
2019-05-23T07:10:20.257Z,15.10
2019-05-23T07:12:51.124Z,15.00
2019-05-23T07:15:20.500Z,15.00
2019-05-23T07:17:50.360Z,15.20
2019-05-23T07:20:19.730Z,15.20
2019-05-23T07:22:49.310Z,15.30
2019-05-23T07:25:18.680Z,15.50
2019-05-23T07:27:48.229Z,15.50
2019-05-23T07:30:23.261Z,15.40
2019-05-23T07:32:53.643Z,15.40
2019-05-23T07:35:23.794Z,15.90
2019-05-23T07:37:53.233Z,16.10
2019-05-23T07:40:23.911Z,16.20
2019-05-23T07:42:53.756Z,16.60
2019-05-23T07:45:30.425Z,17.00
2019-05-23T07:48:01.960Z,17.30
2019-05-23T07:50:32.119Z,17.70
2019-05-23T07:53:01.660Z,17.90
2019-05-23T07:55:38.541Z,17.90
2019-05-23T07:58:12.743Z,18.00
2019-05-23T08:00:44.885Z,17.90
2019-05-23T08:03:16.339Z,18.20
2019-05-23T08:05:46.427Z,18.50
2019-05-23T08:08:16.198Z,18.90
2019-05-23T08:10:46.411Z,19.10
2019-05-23T08:13:17.449Z,18.90
2019-05-23T08:15:47.901Z,18.70
2019-05-23T08:18:17.294Z,18.60
2019-05-23T08:20:46.686Z,18.90
2019-05-23T08:23:17.041Z,19.00
2019-05-23T08:25:47.641Z,19.50
2019-05-23T08:28:17.011Z,20.10
2019-05-23T08:30:46.495Z,20.40
2019-05-23T08:33:16.180Z,20.60
2019-05-23T08:35:46.355Z,20.50
2019-05-23T08:38:15.657Z,20.40
2019-05-23T08:40:44.976Z,20.30
2019-05-23T08:43:14.566Z,19.90
2019-05-23T08:45:44.526Z,19.60
2019-05-23T08:48:14.077Z,19.80
2019-05-23T08:50:43.450Z,20.40
2019-05-23T08:53:13.002Z,20.20
2019-05-23T08:55:43.639Z,20.40
2019-05-23T08:58:13.571Z,20.30
2019-05-23T09:00:44.502Z,20.90
2019-05-23T09:03:13.796Z,21.10
2019-05-23T09:05:44.658Z,21.10
2019-05-23T09:08:16.895Z,21.00
2019-05-23T09:10:46.055Z,20.90
2019-05-23T09:13:17.069Z,21.10
2019-05-23T09:15:46.375Z,21.30
2019-05-23T09:18:16.428Z,21.50
2019-05-23T09:20:46.172Z,20.80
2019-05-23T09:23:15.480Z,20.80
2019-05-23T09:25:44.820Z,21.20
2019-05-23T09:28:15.153Z,21.40
2019-05-23T09:30:45.488Z,21.70
2019-05-23T09:33:14.864Z,22.20
2019-05-23T09:35:44.513Z,22.60
2019-05-23T09:38:13.894Z,22.40
2019-05-23T09:40:43.269Z,22.50
2019-05-23T09:43:13.283Z,22.20
2019-05-23T09:45:42.642Z,22.20
2019-05-23T09:48:11.944Z,22.40
2019-05-23T09:50:41.260Z,22.60
2019-05-23T09:53:10.565Z,22.80
2019-05-23T09:55:39.891Z,23.10
2019-05-23T09:58:09.198Z,23.60
2019-05-23T10:00:40.220Z,24.20
2019-05-23T10:03:09.520Z,24.60
2019-05-23T10:05:43.491Z,24.40
2019-05-23T10:08:11.682Z,24.50
2019-05-23T10:10:41.329Z,23.80
2019-05-23T10:13:10.713Z,22.70
2019-05-23T10:15:45.902Z,21.80
2019-05-23T10:18:19.722Z,20.90
2019-05-23T10:20:49.021Z,20.70
2019-05-23T10:23:18.373Z,20.70
2019-05-23T10:25:47.733Z,21.50
2019-05-23T10:28:17.121Z,21.60
2019-05-23T10:30:46.510Z,21.30
2019-05-23T10:33:15.902Z,21.50
2019-05-23T10:35:59.641Z,21.30
2019-05-23T10:38:17.418Z,20.80
2019-05-23T10:40:48.708Z,20.40
2019-05-23T10:43:18.021Z,20.00
2019-05-23T10:45:48.001Z,19.80
2019-05-23T10:48:18.931Z,19.70
2019-05-23T10:50:48.252Z,19.70
2019-05-23T10:53:18.135Z,19.80
2019-05-23T10:55:47.730Z,20.60
2019-05-23T10:58:17.884Z,22.30
2019-05-23T11:00:47.288Z,23.60
2019-05-23T11:03:17.233Z,24.40
2019-05-23T11:05:46.881Z,24.60
2019-05-23T11:08:16.685Z,24.50
2019-05-23T11:10:46.721Z,24.80
2019-05-23T11:13:16.155Z,25.20
2019-05-23T11:15:45.505Z,25.90
2019-05-23T11:18:15.274Z,25.70
2019-05-23T11:20:44.654Z,25.20
2019-05-23T11:23:15.605Z,25.00
2019-05-23T11:25:45.014Z,24.90
2019-05-23T11:28:14.326Z,24.50
2019-05-23T11:30:50.034Z,23.40
2019-05-23T11:33:20.454Z,23.70
2019-05-23T11:35:50.600Z,24.30
2019-05-23T11:38:20.385Z,25.10
2019-05-23T11:40:50.231Z,25.50
2019-05-23T11:43:20.521Z,25.60
2019-05-23T11:45:51.538Z,25.60
2019-05-23T11:48:21.508Z,25.40
2019-05-23T11:50:50.880Z,25.60
2019-05-23T11:53:20.201Z,26.00
2019-05-23T11:55:53.981Z,25.00
2019-05-23T11:58:20.571Z,23.70
2019-05-23T12:00:54.896Z,23.10
2019-05-23T12:03:24.553Z,22.90
2019-05-23T12:05:53.913Z,22.30
2019-05-23T12:08:23.334Z,22.60
2019-05-23T12:10:52.704Z,22.70
2019-05-23T12:13:22.006Z,23.30
2019-05-23T12:15:52.385Z,24.20
2019-05-23T12:18:22.051Z,25.10
2019-05-23T12:20:51.429Z,25.60
2019-05-23T12:23:20.742Z,25.60
2019-05-23T12:25:50.121Z,25.50
2019-05-23T12:28:20.190Z,25.40
2019-05-23T12:30:49.518Z,24.60
2019-05-23T12:33:18.821Z,23.50
2019-05-23T12:35:48.128Z,22.60
2019-05-23T12:38:17.442Z,22.80
2019-05-23T12:40:46.813Z,23.60
2019-05-23T12:43:16.212Z,23.90
2019-05-23T12:45:45.517Z,24.20
2019-05-23T12:48:19.147Z,24.60
2019-05-23T12:50:53.800Z,25.00
2019-05-23T12:53:21.572Z,25.60
2019-05-23T12:55:50.927Z,25.40
2019-05-23T12:58:21.577Z,25.20
2019-05-23T13:00:53.924Z,24.90
2019-05-23T13:03:24.996Z,24.30
2019-05-23T13:05:54.368Z,24.10
2019-05-23T13:08:23.945Z,24.60
2019-05-23T13:10:53.276Z,24.90
2019-05-23T13:13:22.736Z,25.50
2019-05-23T13:15:52.041Z,26.10
2019-05-23T13:18:21.530Z,26.50
2019-05-23T13:20:51.113Z,26.90
2019-05-23T13:23:21.499Z,27.00
2019-05-23T13:25:51.268Z,26.60
2019-05-23T13:28:20.673Z,26.60
2019-05-23T13:30:50.055Z,27.00
2019-05-23T13:33:19.740Z,27.60
2019-05-23T13:35:49.178Z,28.10
2019-05-23T13:38:18.511Z,28.30
2019-05-23T13:40:47.806Z,26.80
2019-05-23T13:43:17.116Z,26.00
2019-05-23T13:45:47.384Z,26.20
2019-05-23T13:48:16.690Z,26.20
2019-05-23T13:50:45.998Z,25.50
2019-05-23T13:53:16.372Z,25.20
2019-05-23T13:55:46.117Z,25.00
2019-05-23T13:58:15.814Z,25.00
2019-05-23T14:00:45.141Z,25.20
2019-05-23T14:03:14.665Z,25.30
2019-05-23T14:05:43.973Z,25.40
2019-05-23T14:08:13.605Z,26.00
2019-05-23T14:10:43.079Z,27.00
2019-05-23T14:13:12.456Z,27.20
2019-05-23T14:15:43.893Z,26.70
2019-05-23T14:18:15.810Z,26.20
2019-05-23T14:20:45.313Z,26.60
2019-05-23T14:23:20.370Z,27.00
2019-05-23T14:25:50.529Z,26.90
2019-05-23T14:28:20.073Z,26.90
2019-05-23T14:30:51.314Z,26.80
2019-05-23T14:33:34.614Z,26.40
2019-05-23T14:36:08.466Z,26.20
2019-05-23T14:38:38.796Z,25.50
2019-05-23T14:41:08.344Z,24.80
2019-05-23T14:43:38.138Z,24.60
2019-05-23T14:46:17.936Z,24.70
2019-05-23T14:48:48.953Z,25.30
2019-05-23T14:51:19.945Z,25.50
2019-05-23T14:54:07.212Z,25.90
2019-05-23T14:56:38.350Z,26.00
2019-05-23T14:59:08.904Z,26.20
2019-05-23T15:01:38.869Z,26.10
2019-05-23T15:04:08.241Z,25.60
2019-05-23T15:06:37.814Z,25.10
2019-05-23T15:09:08.853Z,24.90
2019-05-23T15:11:38.705Z,24.40
2019-05-23T15:14:08.150Z,23.90
2019-05-23T15:16:37.458Z,23.80
2019-05-23T15:19:09.711Z,23.50
2019-05-23T15:21:40.069Z,23.20
2019-05-23T15:24:09.511Z,23.10
2019-05-23T15:26:38.881Z,23.10
2019-05-23T15:29:08.213Z,23.20
2019-05-23T15:31:37.514Z,23.10
2019-05-23T15:34:06.819Z,23.30
2019-05-23T15:36:36.227Z,23.40
2019-05-23T15:39:10.152Z,23.30
2019-05-23T15:41:40.684Z,23.30
2019-05-23T15:44:23.871Z,23.30
2019-05-23T15:46:41.073Z,23.00
2019-05-23T15:49:11.749Z,22.60
2019-05-23T15:51:54.110Z,22.40
2019-05-23T15:54:24.609Z,22.30
2019-05-23T15:56:58.802Z,22.10
2019-05-23T15:59:32.189Z,21.90
2019-05-23T16:02:03.151Z,21.70
2019-05-23T16:04:32.454Z,21.70
2019-05-23T16:07:01.849Z,21.50
2019-05-23T16:09:31.320Z,21.40
2019-05-23T16:12:00.817Z,21.40
2019-05-23T16:14:31.257Z,21.60
2019-05-23T16:17:00.549Z,21.60
2019-05-23T16:19:30.867Z,21.70
2019-05-23T16:22:01.302Z,21.70
2019-05-23T16:24:31.045Z,21.60
2019-05-23T16:27:01.544Z,21.80
2019-05-23T16:29:30.941Z,21.70
2019-05-23T16:32:00.299Z,21.50
2019-05-23T16:34:30.130Z,21.20
2019-05-23T16:36:59.424Z,21.10
2019-05-23T16:39:44.170Z,21.00
2019-05-23T16:42:00.183Z,21.00
2019-05-23T16:44:29.486Z,20.90
2019-05-23T16:46:58.793Z,21.00
2019-05-23T16:49:28.105Z,21.00
2019-05-23T16:51:58.716Z,21.00
2019-05-23T16:54:30.845Z,21.00
2019-05-23T16:57:01.845Z,21.00
2019-05-23T16:59:32.842Z,20.90
2019-05-23T17:02:06.512Z,20.90
2019-05-23T17:04:48.493Z,20.80
2019-05-23T17:07:32.450Z,20.60
2019-05-23T17:10:09.910Z,20.60
2019-05-23T17:12:41.044Z,20.40
2019-05-23T17:15:28.100Z,20.30
2019-05-23T17:18:02.990Z,20.20
2019-05-23T17:20:42.124Z,20.00
2019-05-23T17:23:17.473Z,19.90
2019-05-23T17:25:54.422Z,19.80
2019-05-23T17:28:26.479Z,19.80
2019-05-23T17:31:00.564Z,19.70
2019-05-23T17:33:31.557Z,19.60
2019-05-23T17:36:01.214Z,19.50
2019-05-23T17:38:30.584Z,19.50
2019-05-23T17:41:00.260Z,19.50
2019-05-23T17:43:29.585Z,19.50
2019-05-23T17:45:58.982Z,19.50
2019-05-23T17:48:28.293Z,19.30
2019-05-23T17:50:57.609Z,19.20
2019-05-23T17:53:27.189Z,19.20
2019-05-23T17:55:57.162Z,19.20
2019-05-23T17:58:26.706Z,19.10
2019-05-23T18:00:56.213Z,19.00
2019-05-23T18:03:25.562Z,19.00
2019-05-23T18:05:55.333Z,19.00
2019-05-23T18:08:26.849Z,19.00
2019-05-23T18:10:56.193Z,19.10
2019-05-23T18:13:25.553Z,19.10
2019-05-23T18:15:55.401Z,19.10
2019-05-23T18:18:25.525Z,19.00
2019-05-23T18:20:55.274Z,19.00
2019-05-23T18:23:24.669Z,18.90
2019-05-23T18:25:54.002Z,18.80
2019-05-23T18:28:24.099Z,18.70
2019-05-23T18:30:58.381Z,18.70
2019-05-23T18:33:29.422Z,18.60
2019-05-23T18:35:59.204Z,18.50
2019-05-23T18:38:28.685Z,18.40
2019-05-23T18:41:03.091Z,18.30
2019-05-23T18:43:29.966Z,18.20
2019-05-23T18:46:00.938Z,18.10
2019-05-23T18:48:30.246Z,18.00
2019-05-23T18:50:59.832Z,17.90
2019-05-23T18:53:29.372Z,17.80
2019-05-23T18:55:58.748Z,17.70
2019-05-23T18:58:28.260Z,17.60
2019-05-23T19:01:09.277Z,17.50
2019-05-23T19:03:38.617Z,17.40
2019-05-23T19:06:07.953Z,17.20
2019-05-23T19:08:37.396Z,17.20
2019-05-23T19:11:20.295Z,17.10
2019-05-23T19:13:37.810Z,16.90
2019-05-23T19:16:07.337Z,16.80
2019-05-23T19:18:36.855Z,16.70
2019-05-23T19:21:10.461Z,16.60
2019-05-23T19:23:39.839Z,16.50
2019-05-23T19:26:09.973Z,16.50
2019-05-23T19:28:43.068Z,16.40
2019-05-23T19:31:13.025Z,16.40
2019-05-23T19:33:42.488Z,16.30
2019-05-23T19:36:11.873Z,16.20
2019-05-23T19:38:41.300Z,16.10
2019-05-23T19:41:12.547Z,16.00
2019-05-23T19:43:42.348Z,15.90
2019-05-23T19:46:13.143Z,15.70
2019-05-23T19:48:42.990Z,15.70
2019-05-23T19:51:12.580Z,15.60
2019-05-23T19:53:41.904Z,15.50
2019-05-23T19:56:11.521Z,15.50
2019-05-23T19:58:41.606Z,15.40
2019-05-23T20:01:11.886Z,15.20
2019-05-23T20:03:43.680Z,15.20
2019-05-23T20:06:13.936Z,15.10
2019-05-23T20:08:44.003Z,15.00
2019-05-23T20:11:13.389Z,14.90
2019-05-23T20:13:42.714Z,14.80
2019-05-23T20:16:12.077Z,14.70
2019-05-23T20:18:41.432Z,14.70
2019-05-23T20:21:11.597Z,14.60
2019-05-23T20:23:41.374Z,14.60
2019-05-23T20:26:12.211Z,14.60
2019-05-23T20:28:41.787Z,14.60
2019-05-23T20:31:11.343Z,14.60
2019-05-23T20:33:40.655Z,14.50
2019-05-23T20:36:12.448Z,14.50
2019-05-23T20:38:42.224Z,14.40
2019-05-23T20:41:11.610Z,14.30
2019-05-23T20:43:40.942Z,14.30
2019-05-23T20:46:10.329Z,14.20
2019-05-23T20:48:39.710Z,14.10
2019-05-23T20:51:09.267Z,14.00
2019-05-23T20:53:38.575Z,13.90
2019-05-23T20:56:09.197Z,13.80
2019-05-23T20:58:38.508Z,13.70
2019-05-23T21:01:16.377Z,13.60
2019-05-23T21:03:46.401Z,13.60
2019-05-23T21:06:15.901Z,13.60
2019-05-23T21:08:45.293Z,13.50
2019-05-23T21:11:14.600Z,13.50
2019-05-23T21:13:43.911Z,13.50
2019-05-23T21:16:13.692Z,13.50
2019-05-23T21:18:43.022Z,13.50
2019-05-23T21:21:12.401Z,13.50
2019-05-23T21:23:41.718Z,13.50
2019-05-23T21:26:11.919Z,13.50
2019-05-23T21:28:41.244Z,13.40
2019-05-23T21:31:13.610Z,13.40
2019-05-23T21:33:42.912Z,13.30
2019-05-23T21:36:12.241Z,13.30
2019-05-23T21:38:42.625Z,13.30
2019-05-23T21:41:11.947Z,13.20
2019-05-23T21:43:42.002Z,13.00
2019-05-23T21:46:11.310Z,12.90
2019-05-23T21:48:42.089Z,12.90
2019-05-23T21:51:11.497Z,12.90
2019-05-23T21:53:41.054Z,12.90
2019-05-23T21:56:10.377Z,12.90
2019-05-23T21:58:39.756Z,12.80
2019-05-23T22:01:11.053Z,12.90
2019-05-23T22:03:45.071Z,12.80
2019-05-23T22:06:16.942Z,12.80
2019-05-23T22:08:46.244Z,12.70
2019-05-23T22:11:15.637Z,12.60
2019-05-23T22:13:45.117Z,12.60
2019-05-23T22:16:14.758Z,12.50
2019-05-23T22:18:44.348Z,12.50
2019-05-23T22:21:13.897Z,12.30
2019-05-23T22:23:44.330Z,12.30
2019-05-23T22:26:14.446Z,12.30
2019-05-23T22:28:43.825Z,12.20
2019-05-23T22:31:13.133Z,12.20
2019-05-23T22:33:49.916Z,12.10
2019-05-23T22:36:20.394Z,12.10
2019-05-23T22:38:50.776Z,12.00
2019-05-23T22:41:20.702Z,12.00
2019-05-23T22:43:50.012Z,11.90
2019-05-23T22:46:21.054Z,11.90
2019-05-23T22:48:50.529Z,11.90
2019-05-23T22:51:19.839Z,11.80
2019-05-23T22:53:49.164Z,11.80
2019-05-23T22:56:18.466Z,11.70
2019-05-23T22:58:49.717Z,11.60
2019-05-23T23:01:20.706Z,11.60
2019-05-23T23:03:50.029Z,11.50
2019-05-23T23:06:19.707Z,11.40
2019-05-23T23:08:50.083Z,11.40
2019-05-23T23:11:19.462Z,11.40
2019-05-23T23:13:48.776Z,11.40
2019-05-23T23:16:18.114Z,11.40
2019-05-23T23:18:47.488Z,11.40
2019-05-23T23:21:17.760Z,11.30
2019-05-23T23:23:47.070Z,11.20
2019-05-23T23:26:16.925Z,11.10
2019-05-23T23:28:46.241Z,11.10
2019-05-23T23:31:15.546Z,11.10
2019-05-23T23:33:44.862Z,11.10
2019-05-23T23:36:14.174Z,11.00
2019-05-23T23:38:44.521Z,10.90
2019-05-23T23:41:13.908Z,10.90
2019-05-23T23:43:58.166Z,10.90
2019-05-23T23:46:32.944Z,10.80
2019-05-23T23:49:20.376Z,10.80
2019-05-23T23:52:07.552Z,10.70
2019-05-23T23:54:54.976Z,10.70
2019-05-23T23:57:43.070Z,10.60
